sensor_id;sensor_type;location;lat;lon;timestamp;temperature;humidity
54680;DHT22;40578;53.178;5.846;2022-07-03T00:02:09;15.40;99.90
54680;DHT22;40578;53.178;5.846;2022-07-03T00:04:34;15.30;99.90
54680;DHT22;40578;53.178;5.846;2022-07-03T00:07:00;15.20;99.90
54680;DHT22;40578;53.178;5.846;2022-07-03T00:09:26;15.10;99.90
54680;DHT22;40578;53.178;5.846;2022-07-03T00:11:51;14.90;99.90
54680;DHT22;40578;53.178;5.846;2022-07-03T00:14:17;14.90;99.90
54680;DHT22;40578;53.178;5.846;2022-07-03T00:16:44;14.90;99.90
54680;DHT22;40578;53.178;5.846;2022-07-03T00:19:10;14.90;99.90
54680;DHT22;40578;53.178;5.846;2022-07-03T00:21:45;14.80;99.90
54680;DHT22;40578;53.178;5.846;2022-07-03T00:24:37;14.80;99.90
54680;DHT22;40578;53.178;5.846;2022-07-03T00:27:08;14.70;99.90
54680;DHT22;40578;53.178;5.846;2022-07-03T00:29:39;14.70;99.90
54680;DHT22;40578;53.178;5.846;2022-07-03T00:32:11;14.70;99.90
54680;DHT22;40578;53.178;5.846;2022-07-03T00:34:38;14.60;99.90
54680;DHT22;40578;53.178;5.846;2022-07-03T00:37:07;14.60;99.90
54680;DHT22;40578;53.178;5.846;2022-07-03T00:39:36;14.60;99.90
54680;DHT22;40578;53.178;5.846;2022-07-03T00:42:04;14.60;99.90
54680;DHT22;40578;53.178;5.846;2022-07-03T00:44:31;14.50;99.90
54680;DHT22;40578;53.178;5.846;2022-07-03T00:46:58;14.50;99.90
54680;DHT22;40578;53.178;5.846;2022-07-03T00:49:24;14.60;99.90
54680;DHT22;40578;53.178;5.846;2022-07-03T00:51:53;14.50;99.90
54680;DHT22;40578;53.178;5.846;2022-07-03T00:54:22;14.50;99.90
54680;DHT22;40578;53.178;5.846;2022-07-03T00:56:54;14.40;99.90
54680;DHT22;40578;53.178;5.846;2022-07-03T00:59:20;14.30;99.90
54680;DHT22;40578;53.178;5.846;2022-07-03T01:01:47;14.40;99.90
54680;DHT22;40578;53.178;5.846;2022-07-03T01:07:05;14.20;99.90
54680;DHT22;40578;53.178;5.846;2022-07-03T01:12:27;14.10;99.90
54680;DHT22;40578;53.178;5.846;2022-07-03T01:18:18;14.10;99.90
54680;DHT22;40578;53.178;5.846;2022-07-03T01:21:54;14.10;99.90
54680;DHT22;40578;53.178;5.846;2022-07-03T01:26:36;14.00;99.90
54680;DHT22;40578;53.178;5.846;2022-07-03T01:29:29;13.90;99.90
54680;DHT22;40578;53.178;5.846;2022-07-03T01:31:58;13.90;99.90
54680;DHT22;40578;53.178;5.846;2022-07-03T01:34:25;13.90;99.90
54680;DHT22;40578;53.178;5.846;2022-07-03T01:36:58;13.80;99.90
54680;DHT22;40578;53.178;5.846;2022-07-03T01:39:26;13.90;99.90
54680;DHT22;40578;53.178;5.846;2022-07-03T01:41:53;13.90;99.90
54680;DHT22;40578;53.178;5.846;2022-07-03T01:44:22;13.90;99.90
54680;DHT22;40578;53.178;5.846;2022-07-03T01:46:51;13.80;99.90
54680;DHT22;40578;53.178;5.846;2022-07-03T01:49:18;13.90;99.90
54680;DHT22;40578;53.178;5.846;2022-07-03T01:51:43;13.90;99.90
54680;DHT22;40578;53.178;5.846;2022-07-03T01:54:10;14.00;99.90
54680;DHT22;40578;53.178;5.846;2022-07-03T01:56:36;13.80;99.90
54680;DHT22;40578;53.178;5.846;2022-07-03T01:59:02;13.90;99.90
54680;DHT22;40578;53.178;5.846;2022-07-03T02:04:17;13.80;99.90
54680;DHT22;40578;53.178;5.846;2022-07-03T02:07:08;13.80;99.90
54680;DHT22;40578;53.178;5.846;2022-07-03T02:09:44;13.80;99.90
54680;DHT22;40578;53.178;5.846;2022-07-03T02:12:18;13.70;99.90
54680;DHT22;40578;53.178;5.846;2022-07-03T02:14:58;13.70;99.90
54680;DHT22;40578;53.178;5.846;2022-07-03T02:17:29;13.60;99.90
54680;DHT22;40578;53.178;5.846;2022-07-03T02:20:03;13.60;99.90
54680;DHT22;40578;53.178;5.846;2022-07-03T02:22:40;13.60;99.90
54680;DHT22;40578;53.178;5.846;2022-07-03T02:25:07;13.70;99.90
54680;DHT22;40578;53.178;5.846;2022-07-03T02:27:42;13.70;99.90
54680;DHT22;40578;53.178;5.846;2022-07-03T02:30:10;13.70;99.90
54680;DHT22;40578;53.178;5.846;2022-07-03T02:32:44;13.80;99.90
54680;DHT22;40578;53.178;5.846;2022-07-03T02:35:31;13.80;99.90
54680;DHT22;40578;53.178;5.846;2022-07-03T02:38:24;13.80;99.90
54680;DHT22;40578;53.178;5.846;2022-07-03T02:41:17;13.80;99.90
54680;DHT22;40578;53.178;5.846;2022-07-03T02:43:57;13.80;99.90
54680;DHT22;40578;53.178;5.846;2022-07-03T02:54:52;13.90;99.90
54680;DHT22;40578;53.178;5.846;2022-07-03T02:57:19;14.00;99.90
54680;DHT22;40578;53.178;5.846;2022-07-03T02:59:50;14.10;99.90
54680;DHT22;40578;53.178;5.846;2022-07-03T03:02:47;14.10;99.90
54680;DHT22;40578;53.178;5.846;2022-07-03T03:10:35;14.20;99.90
54680;DHT22;40578;53.178;5.846;2022-07-03T03:13:05;14.20;99.90
54680;DHT22;40578;53.178;5.846;2022-07-03T03:15:32;14.40;99.90
54680;DHT22;40578;53.178;5.846;2022-07-03T03:18:08;14.30;99.90
54680;DHT22;40578;53.178;5.846;2022-07-03T03:20:37;14.10;99.90
54680;DHT22;40578;53.178;5.846;2022-07-03T03:23:19;14.40;99.90
54680;DHT22;40578;53.178;5.846;2022-07-03T03:25:47;14.10;99.90
54680;DHT22;40578;53.178;5.846;2022-07-03T03:28:14;14.10;99.90
54680;DHT22;40578;53.178;5.846;2022-07-03T03:30:39;14.00;99.90
54680;DHT22;40578;53.178;5.846;2022-07-03T03:33:05;13.90;99.90
54680;DHT22;40578;53.178;5.846;2022-07-03T03:35:36;14.00;99.90
54680;DHT22;40578;53.178;5.846;2022-07-03T03:38:03;13.90;99.90
54680;DHT22;40578;53.178;5.846;2022-07-03T03:40:29;14.00;99.90
54680;DHT22;40578;53.178;5.846;2022-07-03T03:42:54;13.90;99.90
54680;DHT22;40578;53.178;5.846;2022-07-03T03:45:20;13.90;99.90
54680;DHT22;40578;53.178;5.846;2022-07-03T03:47:45;13.90;99.90
54680;DHT22;40578;53.178;5.846;2022-07-03T03:50:11;13.90;99.90
54680;DHT22;40578;53.178;5.846;2022-07-03T03:52:37;13.90;99.90
54680;DHT22;40578;53.178;5.846;2022-07-03T03:55:03;13.90;99.90
54680;DHT22;40578;53.178;5.846;2022-07-03T03:57:29;13.90;99.90
54680;DHT22;40578;53.178;5.846;2022-07-03T03:59:55;13.90;99.90
54680;DHT22;40578;53.178;5.846;2022-07-03T04:02:22;13.90;99.90
54680;DHT22;40578;53.178;5.846;2022-07-03T04:04:47;14.00;99.90
54680;DHT22;40578;53.178;5.846;2022-07-03T04:07:13;14.10;99.90
54680;DHT22;40578;53.178;5.846;2022-07-03T04:09:39;14.20;99.90
54680;DHT22;40578;53.178;5.846;2022-07-03T04:12:05;14.20;99.90
54680;DHT22;40578;53.178;5.846;2022-07-03T04:14:31;14.40;99.90
54680;DHT22;40578;53.178;5.846;2022-07-03T04:16:56;14.40;99.90
54680;DHT22;40578;53.178;5.846;2022-07-03T04:19:22;14.50;99.90
54680;DHT22;40578;53.178;5.846;2022-07-03T04:21:49;14.60;99.90
54680;DHT22;40578;53.178;5.846;2022-07-03T04:24:17;14.60;99.90
54680;DHT22;40578;53.178;5.846;2022-07-03T04:26:42;14.60;99.90
54680;DHT22;40578;53.178;5.846;2022-07-03T04:29:08;14.70;99.90
54680;DHT22;40578;53.178;5.846;2022-07-03T04:31:33;14.80;99.90
54680;DHT22;40578;53.178;5.846;2022-07-03T04:33:59;14.90;99.90
54680;DHT22;40578;53.178;5.846;2022-07-03T04:36:25;14.90;99.90
54680;DHT22;40578;53.178;5.846;2022-07-03T04:38:50;14.90;99.90
54680;DHT22;40578;53.178;5.846;2022-07-03T04:41:16;14.90;99.90
54680;DHT22;40578;53.178;5.846;2022-07-03T04:43:42;14.90;99.90
54680;DHT22;40578;53.178;5.846;2022-07-03T04:46:07;14.80;99.90
54680;DHT22;40578;53.178;5.846;2022-07-03T04:48:33;14.80;99.90
54680;DHT22;40578;53.178;5.846;2022-07-03T04:50:58;14.70;99.90
54680;DHT22;40578;53.178;5.846;2022-07-03T04:53:24;14.80;99.90
54680;DHT22;40578;53.178;5.846;2022-07-03T04:55:50;14.60;99.90
54680;DHT22;40578;53.178;5.846;2022-07-03T04:58:17;14.70;99.90
54680;DHT22;40578;53.178;5.846;2022-07-03T05:00:43;15.00;99.90
54680;DHT22;40578;53.178;5.846;2022-07-03T05:03:09;15.40;99.90
54680;DHT22;40578;53.178;5.846;2022-07-03T05:05:35;15.80;99.90
54680;DHT22;40578;53.178;5.846;2022-07-03T05:08:01;16.50;99.90
54680;DHT22;40578;53.178;5.846;2022-07-03T05:10:27;16.90;99.90
54680;DHT22;40578;53.178;5.846;2022-07-03T05:12:53;17.00;99.90
54680;DHT22;40578;53.178;5.846;2022-07-03T05:15:19;16.80;99.90
54680;DHT22;40578;53.178;5.846;2022-07-03T05:17:45;16.70;99.90
54680;DHT22;40578;53.178;5.846;2022-07-03T05:20:11;16.50;99.90
54680;DHT22;40578;53.178;5.846;2022-07-03T05:23:03;16.20;99.90
54680;DHT22;40578;53.178;5.846;2022-07-03T05:25:30;16.20;99.90
54680;DHT22;40578;53.178;5.846;2022-07-03T05:27:57;16.00;99.90
54680;DHT22;40578;53.178;5.846;2022-07-03T05:30:24;16.00;99.90
54680;DHT22;40578;53.178;5.846;2022-07-03T05:32:50;16.00;99.90
54680;DHT22;40578;53.178;5.846;2022-07-03T05:35:16;15.90;99.90
54680;DHT22;40578;53.178;5.846;2022-07-03T05:37:42;16.00;99.90
54680;DHT22;40578;53.178;5.846;2022-07-03T05:40:08;16.00;99.90
54680;DHT22;40578;53.178;5.846;2022-07-03T05:42:34;16.00;99.90
54680;DHT22;40578;53.178;5.846;2022-07-03T05:45:00;16.10;99.90
54680;DHT22;40578;53.178;5.846;2022-07-03T05:47:26;16.20;99.90
54680;DHT22;40578;53.178;5.846;2022-07-03T05:49:53;16.20;99.90
54680;DHT22;40578;53.178;5.846;2022-07-03T05:52:19;16.20;99.90
54680;DHT22;40578;53.178;5.846;2022-07-03T05:54:45;16.30;99.90
54680;DHT22;40578;53.178;5.846;2022-07-03T05:57:10;16.60;99.90
54680;DHT22;40578;53.178;5.846;2022-07-03T05:59:36;16.90;99.90
54680;DHT22;40578;53.178;5.846;2022-07-03T06:02:02;17.30;99.90
54680;DHT22;40578;53.178;5.846;2022-07-03T06:04:27;17.50;99.90
54680;DHT22;40578;53.178;5.846;2022-07-03T06:06:53;17.50;99.90
54680;DHT22;40578;53.178;5.846;2022-07-03T06:09:20;17.60;99.90
54680;DHT22;40578;53.178;5.846;2022-07-03T06:11:46;17.70;99.90
54680;DHT22;40578;53.178;5.846;2022-07-03T06:14:13;17.70;99.90
54680;DHT22;40578;53.178;5.846;2022-07-03T06:16:39;17.70;99.90
54680;DHT22;40578;53.178;5.846;2022-07-03T06:19:05;17.80;99.90
54680;DHT22;40578;53.178;5.846;2022-07-03T06:21:31;18.20;99.90
54680;DHT22;40578;53.178;5.846;2022-07-03T06:23:57;18.80;93.30
54680;DHT22;40578;53.178;5.846;2022-07-03T06:26:23;19.30;21.90
54680;DHT22;40578;53.178;5.846;2022-07-03T06:28:49;19.30;36.10
54680;DHT22;40578;53.178;5.846;2022-07-03T06:31:14;18.90;39.10
54680;DHT22;40578;53.178;5.846;2022-07-03T06:33:40;18.80;52.30
54680;DHT22;40578;53.178;5.846;2022-07-03T06:36:06;18.60;62.10
54680;DHT22;40578;53.178;5.846;2022-07-03T06:38:31;18.40;74.20
54680;DHT22;40578;53.178;5.846;2022-07-03T06:40:57;18.30;75.30
54680;DHT22;40578;53.178;5.846;2022-07-03T06:43:23;18.20;97.70
54680;DHT22;40578;53.178;5.846;2022-07-03T06:45:49;18.10;99.90
54680;DHT22;40578;53.178;5.846;2022-07-03T06:48:14;18.10;96.30
54680;DHT22;40578;53.178;5.846;2022-07-03T06:50:40;18.10;99.90
54680;DHT22;40578;53.178;5.846;2022-07-03T06:53:06;18.10;99.90
54680;DHT22;40578;53.178;5.846;2022-07-03T06:55:31;18.10;99.90
54680;DHT22;40578;53.178;5.846;2022-07-03T06:57:57;18.20;99.30
54680;DHT22;40578;53.178;5.846;2022-07-03T07:00:23;18.10;98.20
54680;DHT22;40578;53.178;5.846;2022-07-03T07:02:48;18.10;99.90
54680;DHT22;40578;53.178;5.846;2022-07-03T07:05:14;18.10;99.90
54680;DHT22;40578;53.178;5.846;2022-07-03T07:07:39;18.20;99.90
54680;DHT22;40578;53.178;5.846;2022-07-03T07:10:06;18.20;99.90
54680;DHT22;40578;53.178;5.846;2022-07-03T07:12:31;18.30;99.90
54680;DHT22;40578;53.178;5.846;2022-07-03T07:14:57;18.40;99.90
54680;DHT22;40578;53.178;5.846;2022-07-03T07:17:22;18.40;99.90
54680;DHT22;40578;53.178;5.846;2022-07-03T07:19:48;18.30;84.40
54680;DHT22;40578;53.178;5.846;2022-07-03T07:22:14;18.40;70.70
54680;DHT22;40578;53.178;5.846;2022-07-03T07:24:39;18.40;40.90
54680;DHT22;40578;53.178;5.846;2022-07-03T07:27:05;18.50;76.20
54680;DHT22;40578;53.178;5.846;2022-07-03T07:29:30;18.40;74.40
54680;DHT22;40578;53.178;5.846;2022-07-03T07:31:56;18.50;19.50
54680;DHT22;40578;53.178;5.846;2022-07-03T07:34:22;18.50;1.00
54680;DHT22;40578;53.178;5.846;2022-07-03T07:36:47;18.50;1.00
54680;DHT22;40578;53.178;5.846;2022-07-03T07:39:13;18.50;1.00
54680;DHT22;40578;53.178;5.846;2022-07-03T07:41:39;18.50;1.00
54680;DHT22;40578;53.178;5.846;2022-07-03T07:44:04;18.50;26.70
54680;DHT22;40578;53.178;5.846;2022-07-03T07:46:31;18.50;18.60
54680;DHT22;40578;53.178;5.846;2022-07-03T07:48:56;18.60;1.00
54680;DHT22;40578;53.178;5.846;2022-07-03T07:51:22;18.80;1.00
54680;DHT22;40578;53.178;5.846;2022-07-03T07:53:48;18.70;1.00
54680;DHT22;40578;53.178;5.846;2022-07-03T07:56:15;18.70;1.00
54680;DHT22;40578;53.178;5.846;2022-07-03T07:58:41;18.80;1.00
54680;DHT22;40578;53.178;5.846;2022-07-03T08:01:07;18.80;1.00
54680;DHT22;40578;53.178;5.846;2022-07-03T08:03:51;18.80;1.00
54680;DHT22;40578;53.178;5.846;2022-07-03T08:06:36;18.80;1.00
54680;DHT22;40578;53.178;5.846;2022-07-03T08:09:02;19.00;1.00
54680;DHT22;40578;53.178;5.846;2022-07-03T08:11:28;19.00;1.00
54680;DHT22;40578;53.178;5.846;2022-07-03T08:13:54;19.00;1.00
54680;DHT22;40578;53.178;5.846;2022-07-03T08:16:19;19.00;1.00
54680;DHT22;40578;53.178;5.846;2022-07-03T08:18:45;19.00;1.00
54680;DHT22;40578;53.178;5.846;2022-07-03T08:21:11;19.20;1.00
54680;DHT22;40578;53.178;5.846;2022-07-03T08:23:36;19.30;1.00
54680;DHT22;40578;53.178;5.846;2022-07-03T08:26:02;19.40;1.00
54680;DHT22;40578;53.178;5.846;2022-07-03T08:28:28;19.50;74.30
54680;DHT22;40578;53.178;5.846;2022-07-03T08:30:53;19.50;99.90
54680;DHT22;40578;53.178;5.846;2022-07-03T08:33:19;19.30;99.90
54680;DHT22;40578;53.178;5.846;2022-07-03T08:35:45;19.20;99.90
54680;DHT22;40578;53.178;5.846;2022-07-03T08:38:10;19.00;99.90
54680;DHT22;40578;53.178;5.846;2022-07-03T08:40:37;19.10;99.90
54680;DHT22;40578;53.178;5.846;2022-07-03T08:43:03;19.20;99.90
54680;DHT22;40578;53.178;5.846;2022-07-03T08:45:30;19.30;99.90
54680;DHT22;40578;53.178;5.846;2022-07-03T08:47:59;19.40;99.90
54680;DHT22;40578;53.178;5.846;2022-07-03T08:50:26;19.60;69.40
54680;DHT22;40578;53.178;5.846;2022-07-03T08:52:52;19.60;1.00
54680;DHT22;40578;53.178;5.846;2022-07-03T08:55:19;19.50;55.20
54680;DHT22;40578;53.178;5.846;2022-07-03T08:57:47;19.30;60.60
54680;DHT22;40578;53.178;5.846;2022-07-03T09:00:14;19.20;66.00
54680;DHT22;40578;53.178;5.846;2022-07-03T09:02:43;19.20;61.90
54680;DHT22;40578;53.178;5.846;2022-07-03T09:05:10;19.30;1.00
54680;DHT22;40578;53.178;5.846;2022-07-03T09:07:37;19.20;99.90
54680;DHT22;40578;53.178;5.846;2022-07-03T09:10:04;19.50;99.90
54680;DHT22;40578;53.178;5.846;2022-07-03T09:12:31;19.60;1.00
54680;DHT22;40578;53.178;5.846;2022-07-03T09:14:58;19.60;1.00
54680;DHT22;40578;53.178;5.846;2022-07-03T09:17:23;19.70;1.00
54680;DHT22;40578;53.178;5.846;2022-07-03T09:19:49;19.50;1.00
54680;DHT22;40578;53.178;5.846;2022-07-03T09:22:35;19.40;47.60
54680;DHT22;40578;53.178;5.846;2022-07-03T09:25:11;19.50;35.70
54680;DHT22;40578;53.178;5.846;2022-07-03T09:27:38;19.60;58.10
54680;DHT22;40578;53.178;5.846;2022-07-03T09:30:05;19.80;76.60
54680;DHT22;40578;53.178;5.846;2022-07-03T09:35:24;20.00;1.00
54680;DHT22;40578;53.178;5.846;2022-07-03T09:37:54;20.10;1.00
54680;DHT22;40578;53.178;5.846;2022-07-03T09:40:25;20.10;1.00
54680;DHT22;40578;53.178;5.846;2022-07-03T09:45:22;20.00;99.90
54680;DHT22;40578;53.178;5.846;2022-07-03T09:47:48;20.00;1.00
54680;DHT22;40578;53.178;5.846;2022-07-03T09:50:15;20.00;1.00
54680;DHT22;40578;53.178;5.846;2022-07-03T09:52:43;20.00;56.10
54680;DHT22;40578;53.178;5.846;2022-07-03T09:57:38;19.90;98.60
54680;DHT22;40578;53.178;5.846;2022-07-03T10:00:21;20.10;99.90
54680;DHT22;40578;53.178;5.846;2022-07-03T10:03:02;20.10;99.90
54680;DHT22;40578;53.178;5.846;2022-07-03T10:10:32;19.90;96.20
54680;DHT22;40578;53.178;5.846;2022-07-03T10:12:59;20.00;75.40
54680;DHT22;40578;53.178;5.846;2022-07-03T10:15:27;19.80;84.30
54680;DHT22;40578;53.178;5.846;2022-07-03T10:17:56;19.90;77.70
54680;DHT22;40578;53.178;5.846;2022-07-03T10:20:30;19.90;93.60
54680;DHT22;40578;53.178;5.846;2022-07-03T10:22:57;19.90;85.50
54680;DHT22;40578;53.178;5.846;2022-07-03T10:25:24;19.90;83.60
54680;DHT22;40578;53.178;5.846;2022-07-03T10:27:49;19.90;29.40
54680;DHT22;40578;53.178;5.846;2022-07-03T10:30:17;20.00;56.90
54680;DHT22;40578;53.178;5.846;2022-07-03T10:32:45;20.00;28.20
54680;DHT22;40578;53.178;5.846;2022-07-03T10:35:14;20.00;1.00
54680;DHT22;40578;53.178;5.846;2022-07-03T10:43:38;20.00;5.60
54680;DHT22;40578;53.178;5.846;2022-07-03T10:46:25;20.20;1.00
54680;DHT22;40578;53.178;5.846;2022-07-03T10:49:10;20.50;1.00
54680;DHT22;40578;53.178;5.846;2022-07-03T10:54:31;20.70;99.90
54680;DHT22;40578;53.178;5.846;2022-07-03T11:13:05;21.10;99.90
54680;DHT22;40578;53.178;5.846;2022-07-03T11:34:03;21.20;99.90
54680;DHT22;40578;53.178;5.846;2022-07-03T11:41:27;21.30;99.90
54680;DHT22;40578;53.178;5.846;2022-07-03T11:43:57;21.50;99.90
54680;DHT22;40578;53.178;5.846;2022-07-03T11:46:28;21.30;99.90
54680;DHT22;40578;53.178;5.846;2022-07-03T11:49:11;21.10;99.90
54680;DHT22;40578;53.178;5.846;2022-07-03T11:51:55;21.10;99.90
54680;DHT22;40578;53.178;5.846;2022-07-03T11:54:21;21.20;99.90
54680;DHT22;40578;53.178;5.846;2022-07-03T11:56:47;21.40;99.90
54680;DHT22;40578;53.178;5.846;2022-07-03T11:59:12;21.50;99.90
54680;DHT22;40578;53.178;5.846;2022-07-03T12:01:39;21.60;99.90
54680;DHT22;40578;53.178;5.846;2022-07-03T12:06:40;21.50;99.90
54680;DHT22;40578;53.178;5.846;2022-07-03T12:11:38;21.30;99.90
54680;DHT22;40578;53.178;5.846;2022-07-03T12:14:04;21.30;99.90
54680;DHT22;40578;53.178;5.846;2022-07-03T12:16:33;21.50;99.90
54680;DHT22;40578;53.178;5.846;2022-07-03T12:19:04;21.60;99.90
54680;DHT22;40578;53.178;5.846;2022-07-03T12:21:39;21.60;99.90
54680;DHT22;40578;53.178;5.846;2022-07-03T12:24:13;21.60;99.90
54680;DHT22;40578;53.178;5.846;2022-07-03T12:26:40;21.40;99.90
54680;DHT22;40578;53.178;5.846;2022-07-03T12:29:12;21.50;99.90
54680;DHT22;40578;53.178;5.846;2022-07-03T12:31:43;21.60;99.90
54680;DHT22;40578;53.178;5.846;2022-07-03T12:34:10;21.30;99.90
54680;DHT22;40578;53.178;5.846;2022-07-03T12:36:36;21.10;1.00
54680;DHT22;40578;53.178;5.846;2022-07-03T12:39:02;21.00;1.00
54680;DHT22;40578;53.178;5.846;2022-07-03T12:41:28;21.20;1.00
54680;DHT22;40578;53.178;5.846;2022-07-03T12:43:56;21.10;99.90
54680;DHT22;40578;53.178;5.846;2022-07-03T12:48:58;21.40;99.90
54680;DHT22;40578;53.178;5.846;2022-07-03T12:54:11;21.60;88.80
54680;DHT22;40578;53.178;5.846;2022-07-03T12:56:37;21.70;95.50
54680;DHT22;40578;53.178;5.846;2022-07-03T12:59:03;21.90;99.90
54680;DHT22;40578;53.178;5.846;2022-07-03T13:01:43;21.90;45.30
54680;DHT22;40578;53.178;5.846;2022-07-03T13:04:10;21.80;98.50
54680;DHT22;40578;53.178;5.846;2022-07-03T13:06:41;21.60;99.90
54680;DHT22;40578;53.178;5.846;2022-07-03T13:09:08;21.30;99.90
54680;DHT22;40578;53.178;5.846;2022-07-03T13:11:36;21.50;99.90
54680;DHT22;40578;53.178;5.846;2022-07-03T13:14:15;21.50;99.90
54680;DHT22;40578;53.178;5.846;2022-07-03T13:16:49;21.40;99.90
54680;DHT22;40578;53.178;5.846;2022-07-03T13:19:20;21.30;99.90
54680;DHT22;40578;53.178;5.846;2022-07-03T13:21:46;21.10;99.90
54680;DHT22;40578;53.178;5.846;2022-07-03T13:24:14;20.80;99.90
54680;DHT22;40578;53.178;5.846;2022-07-03T13:26:40;20.70;99.90
54680;DHT22;40578;53.178;5.846;2022-07-03T13:29:07;20.50;1.00
54680;DHT22;40578;53.178;5.846;2022-07-03T13:31:33;20.30;1.00
54680;DHT22;40578;53.178;5.846;2022-07-03T13:33:58;20.00;1.00
54680;DHT22;40578;53.178;5.846;2022-07-03T13:36:30;19.90;1.00
54680;DHT22;40578;53.178;5.846;2022-07-03T13:38:57;19.90;1.00
54680;DHT22;40578;53.178;5.846;2022-07-03T13:41:23;19.70;1.00
54680;DHT22;40578;53.178;5.846;2022-07-03T13:43:50;19.80;1.00
54680;DHT22;40578;53.178;5.846;2022-07-03T13:46:17;19.60;1.00
54680;DHT22;40578;53.178;5.846;2022-07-03T13:48:43;19.60;1.00
54680;DHT22;40578;53.178;5.846;2022-07-03T13:51:08;19.60;1.00
54680;DHT22;40578;53.178;5.846;2022-07-03T13:53:34;19.50;1.00
54680;DHT22;40578;53.178;5.846;2022-07-03T13:56:01;19.60;1.00
54680;DHT22;40578;53.178;5.846;2022-07-03T13:58:27;19.60;99.90
54680;DHT22;40578;53.178;5.846;2022-07-03T14:00:54;19.60;99.90
54680;DHT22;40578;53.178;5.846;2022-07-03T14:03:20;19.50;1.00
54680;DHT22;40578;53.178;5.846;2022-07-03T14:05:46;19.70;1.00
54680;DHT22;40578;53.178;5.846;2022-07-03T14:08:13;19.70;1.00
54680;DHT22;40578;53.178;5.846;2022-07-03T14:10:39;19.60;31.70
54680;DHT22;40578;53.178;5.846;2022-07-03T14:13:05;19.50;1.00
54680;DHT22;40578;53.178;5.846;2022-07-03T14:15:33;19.50;1.00
54680;DHT22;40578;53.178;5.846;2022-07-03T14:17:58;19.60;1.00
54680;DHT22;40578;53.178;5.846;2022-07-03T14:20:26;19.40;6.60
54680;DHT22;40578;53.178;5.846;2022-07-03T14:22:52;19.50;1.00
54680;DHT22;40578;53.178;5.846;2022-07-03T14:25:18;19.50;1.00
54680;DHT22;40578;53.178;5.846;2022-07-03T14:27:43;19.50;1.00
54680;DHT22;40578;53.178;5.846;2022-07-03T14:30:28;19.50;1.00
54680;DHT22;40578;53.178;5.846;2022-07-03T14:33:12;19.50;1.00
54680;DHT22;40578;53.178;5.846;2022-07-03T14:35:38;19.60;12.80
54680;DHT22;40578;53.178;5.846;2022-07-03T14:38:03;19.70;1.00
54680;DHT22;40578;53.178;5.846;2022-07-03T14:40:29;19.90;1.00
54680;DHT22;40578;53.178;5.846;2022-07-03T14:42:55;20.10;1.00
54680;DHT22;40578;53.178;5.846;2022-07-03T14:45:22;20.30;1.00
54680;DHT22;40578;53.178;5.846;2022-07-03T14:47:48;20.60;99.90
54680;DHT22;40578;53.178;5.846;2022-07-03T14:50:13;20.70;99.90
54680;DHT22;40578;53.178;5.846;2022-07-03T14:52:39;20.80;99.90
54680;DHT22;40578;53.178;5.846;2022-07-03T14:55:05;20.90;99.90
54680;DHT22;40578;53.178;5.846;2022-07-03T15:00:05;20.70;99.90
54680;DHT22;40578;53.178;5.846;2022-07-03T15:05:09;20.20;99.90
54680;DHT22;40578;53.178;5.846;2022-07-03T15:07:50;20.10;99.90
54680;DHT22;40578;53.178;5.846;2022-07-03T15:10:18;20.10;99.90
54680;DHT22;40578;53.178;5.846;2022-07-03T15:12:51;20.00;99.90
54680;DHT22;40578;53.178;5.846;2022-07-03T15:15:19;20.10;99.90
54680;DHT22;40578;53.178;5.846;2022-07-03T15:17:48;20.30;99.90
54680;DHT22;40578;53.178;5.846;2022-07-03T15:20:17;20.40;99.90
54680;DHT22;40578;53.178;5.846;2022-07-03T15:22:45;20.30;99.90
54680;DHT22;40578;53.178;5.846;2022-07-03T15:25:16;20.20;99.90
54680;DHT22;40578;53.178;5.846;2022-07-03T15:27:52;20.10;99.90
54680;DHT22;40578;53.178;5.846;2022-07-03T15:30:19;20.00;1.00
54680;DHT22;40578;53.178;5.846;2022-07-03T15:32:46;19.80;1.00
54680;DHT22;40578;53.178;5.846;2022-07-03T15:35:16;19.80;1.00
54680;DHT22;40578;53.178;5.846;2022-07-03T15:38:01;19.80;1.00
54680;DHT22;40578;53.178;5.846;2022-07-03T15:53:59;19.60;1.00
54680;DHT22;40578;53.178;5.846;2022-07-03T15:56:35;19.60;1.00
54680;DHT22;40578;53.178;5.846;2022-07-03T15:59:03;19.70;1.00
54680;DHT22;40578;53.178;5.846;2022-07-03T16:01:38;19.60;1.00
54680;DHT22;40578;53.178;5.846;2022-07-03T16:07:16;19.60;1.00
54680;DHT22;40578;53.178;5.846;2022-07-03T16:09:43;19.60;1.00
54680;DHT22;40578;53.178;5.846;2022-07-03T16:12:10;19.60;1.00
54680;DHT22;40578;53.178;5.846;2022-07-03T16:14:41;19.50;1.00
54680;DHT22;40578;53.178;5.846;2022-07-03T16:17:07;19.40;1.00
54680;DHT22;40578;53.178;5.846;2022-07-03T16:19:34;19.40;1.00
54680;DHT22;40578;53.178;5.846;2022-07-03T16:22:00;19.40;1.00
54680;DHT22;40578;53.178;5.846;2022-07-03T16:24:28;19.60;1.00
54680;DHT22;40578;53.178;5.846;2022-07-03T16:26:55;19.80;1.00
54680;DHT22;40578;53.178;5.846;2022-07-03T16:29:21;20.20;99.90
54680;DHT22;40578;53.178;5.846;2022-07-03T16:31:49;20.40;99.90
54680;DHT22;40578;53.178;5.846;2022-07-03T16:34:25;20.40;99.90
54680;DHT22;40578;53.178;5.846;2022-07-03T16:36:54;20.40;99.90
54680;DHT22;40578;53.178;5.846;2022-07-03T16:39:35;20.30;99.90
54680;DHT22;40578;53.178;5.846;2022-07-03T16:42:02;20.00;99.90
54680;DHT22;40578;53.178;5.846;2022-07-03T16:44:28;19.80;99.90
54680;DHT22;40578;53.178;5.846;2022-07-03T16:46:59;19.70;99.90
54680;DHT22;40578;53.178;5.846;2022-07-03T16:49:31;19.70;99.90
54680;DHT22;40578;53.178;5.846;2022-07-03T16:52:06;19.70;99.90
54680;DHT22;40578;53.178;5.846;2022-07-03T16:54:32;19.80;99.90
54680;DHT22;40578;53.178;5.846;2022-07-03T16:57:02;20.10;99.90
54680;DHT22;40578;53.178;5.846;2022-07-03T16:59:28;20.30;99.90
54680;DHT22;40578;53.178;5.846;2022-07-03T17:01:54;20.40;99.90
54680;DHT22;40578;53.178;5.846;2022-07-03T17:04:21;20.20;99.90
54680;DHT22;40578;53.178;5.846;2022-07-03T17:06:47;20.00;99.90
54680;DHT22;40578;53.178;5.846;2022-07-03T17:09:14;20.00;99.90
54680;DHT22;40578;53.178;5.846;2022-07-03T17:11:42;19.80;99.90
54680;DHT22;40578;53.178;5.846;2022-07-03T17:14:09;19.60;99.90
54680;DHT22;40578;53.178;5.846;2022-07-03T17:16:42;19.40;99.90
54680;DHT22;40578;53.178;5.846;2022-07-03T17:19:12;19.30;99.90
54680;DHT22;40578;53.178;5.846;2022-07-03T17:21:42;19.20;99.90
54680;DHT22;40578;53.178;5.846;2022-07-03T17:24:08;19.10;99.90
54680;DHT22;40578;53.178;5.846;2022-07-03T17:26:40;19.10;99.90
54680;DHT22;40578;53.178;5.846;2022-07-03T17:29:06;19.30;99.90
54680;DHT22;40578;53.178;5.846;2022-07-03T17:31:42;19.60;99.90
54680;DHT22;40578;53.178;5.846;2022-07-03T17:34:08;19.70;50.20
54680;DHT22;40578;53.178;5.846;2022-07-03T17:36:35;19.80;93.30
54680;DHT22;40578;53.178;5.846;2022-07-03T17:39:01;19.70;84.20
54680;DHT22;40578;53.178;5.846;2022-07-03T17:41:32;19.50;99.90
54680;DHT22;40578;53.178;5.846;2022-07-03T17:43:59;19.40;99.90
54680;DHT22;40578;53.178;5.846;2022-07-03T17:46:26;19.30;99.90